Search for airport 
image banner adimage banner adimage banner ad
image banner ad

8CA2 - Auburn Cal Fire

Located in Auburn, United States

ICAO - 8CA2, IATA -

Data provided by Airmate  

General information

Coordinates: N38°56'3" W121°3'14"
Elevation is 1635 feet MSL.
Magnetic variation is 16° East
View others Airports in California

Operational data

Special qualification required
Current time UTC:
Current local time:
Weather at : KAUN - Auburn Muni ( 3 km )
METAR: KAUN 221355Z AUTO 14006KT 10SM CLR 16/10 A2991 RMK A01
View NOTAMs / SUP AIP / TFR affecting this airport [VIEW]
Communications frequencies: [VIEW]

Runways:

Airport contact information

Address: Auburn United States

Satellite view of 8CA2